createdAt,value
2023-03-05T00:01:22.575Z,97484.13
2023-03-05T00:03:49.357Z,97463.94
2023-03-05T00:06:17.383Z,97474.22
2023-03-05T00:08:44.147Z,97481.22
2023-03-05T00:11:12.061Z,97470.63
2023-03-05T00:13:38.581Z,97468.38
2023-03-05T00:16:08.083Z,97481.50
2023-03-05T00:18:34.716Z,97481.97
2023-03-05T00:21:01.058Z,97472.25
2023-03-05T00:23:27.612Z,97476.84
2023-03-05T00:25:54.061Z,97473.25
2023-03-05T00:28:20.516Z,97471.44
2023-03-05T00:30:46.979Z,97478.16
2023-03-05T00:33:13.922Z,97469.94
2023-03-05T00:35:45.675Z,97471.88
2023-03-05T00:38:13.338Z,97477.38
2023-03-05T00:40:41.779Z,97471.69
2023-03-05T00:43:09.771Z,97478.34
2023-03-05T00:45:36.607Z,97471.72
2023-03-05T00:48:03.764Z,97470.47
2023-03-05T00:50:30.572Z,97462.28
2023-03-05T00:52:57.047Z,97469.94
2023-03-05T00:55:23.413Z,97445.28
2023-03-05T00:57:49.820Z,97435.22
2023-03-05T01:00:16.746Z,97450.44
2023-03-05T01:02:43.541Z,97454.84
2023-03-05T01:05:14.473Z,97445.78
2023-03-05T01:07:41.420Z,97440.25
2023-03-05T01:10:12.093Z,97442.34
2023-03-05T01:12:39.380Z,97438.81
2023-03-05T01:15:06.572Z,97436.91
2023-03-05T01:17:33.238Z,97439.78
2023-03-05T01:19:59.654Z,97445.94
2023-03-05T01:22:26.116Z,97431.47
2023-03-05T01:24:52.473Z,97424.81
2023-03-05T01:27:18.869Z,97419.50
2023-03-05T01:29:45.253Z,97415.25
2023-03-05T01:32:11.675Z,97414.03
2023-03-05T01:34:38.146Z,97409.44
2023-03-05T01:37:04.636Z,97409.78
2023-03-05T01:39:31.023Z,97414.09
2023-03-05T01:41:57.373Z,97405.59
2023-03-05T01:44:27.212Z,97398.97
2023-03-05T01:46:53.772Z,97395.78
2023-03-05T01:49:29.437Z,97395.59
2023-03-05T01:52:11.755Z,97395.41
2023-03-05T01:54:45.171Z,97387.84
2023-03-05T01:57:20.587Z,97384.06
2023-03-05T01:59:51.158Z,97384.34
2023-03-05T02:02:18.611Z,97381.50
2023-03-05T02:05:08.201Z,97391.47
2023-03-05T02:07:37.215Z,97383.25
2023-03-05T02:10:25.812Z,97382.25
2023-03-05T02:12:54.592Z,97374.28
2023-03-05T02:15:21.605Z,97375.81
2023-03-05T02:17:48.572Z,97367.28
2023-03-05T02:20:21.524Z,97369.13
2023-03-05T02:22:47.987Z,97370.16
2023-03-05T02:25:20.535Z,97368.09
2023-03-05T02:27:54.993Z,97358.78
2023-03-05T02:30:21.543Z,97365.78
2023-03-05T02:32:47.974Z,97354.50
2023-03-05T02:35:14.423Z,97354.50
2023-03-05T02:37:41.321Z,97349.81
2023-03-05T02:40:08.782Z,97360.06
2023-03-05T02:42:35.598Z,97350.81
2023-03-05T02:45:02.596Z,97329.94
2023-03-05T02:47:29.275Z,97341.03
2023-03-05T02:49:56.349Z,97338.03
2023-03-05T02:52:25.653Z,97351.59
2023-03-05T02:54:52.590Z,97345.84
2023-03-05T02:57:19.412Z,97348.22
2023-03-05T02:59:46.332Z,97325.31
2023-03-05T03:02:13.381Z,97347.28
2023-03-05T03:04:40.191Z,97344.94
2023-03-05T03:07:06.547Z,97334.34
2023-03-05T03:09:35.886Z,97328.13
2023-03-05T03:12:03.273Z,97331.78
2023-03-05T03:14:38.993Z,97323.59
2023-03-05T03:17:11.694Z,97329.25
2023-03-05T03:19:39.068Z,97302.94
2023-03-05T03:22:07.365Z,97313.09
2023-03-05T03:24:34.795Z,97311.00
2023-03-05T03:27:01.781Z,97329.28
2023-03-05T03:29:28.367Z,97317.19
2023-03-05T03:31:54.757Z,97313.84
2023-03-05T03:34:21.400Z,97316.13
2023-03-05T03:36:49.325Z,97317.38
2023-03-05T03:39:16.480Z,97299.56
2023-03-05T03:41:48.598Z,97313.28
2023-03-05T03:44:17.500Z,97304.22
2023-03-05T03:46:46.157Z,97306.78
2023-03-05T03:49:19.325Z,97312.97
2023-03-05T03:51:46.357Z,97303.47
2023-03-05T03:54:13.840Z,97305.16
2023-03-05T03:56:40.370Z,97300.81
2023-03-05T03:59:06.770Z,97292.84
2023-03-05T04:01:33.406Z,97299.09
2023-03-05T04:03:59.985Z,97309.09
2023-03-05T04:06:26.460Z,97308.81
2023-03-05T04:08:52.841Z,97313.72
2023-03-05T04:11:19.475Z,97298.72
2023-03-05T04:13:46.872Z,97316.44
2023-03-05T04:16:14.612Z,97291.69
2023-03-05T04:18:41.206Z,97300.66
2023-03-05T04:21:08.596Z,97299.94
2023-03-05T04:23:36.415Z,97297.34
2023-03-05T04:26:03.364Z,97289.50
2023-03-05T04:28:29.786Z,97298.94
2023-03-05T04:30:56.292Z,97288.88
2023-03-05T04:33:22.732Z,97272.47
2023-03-05T04:35:49.165Z,97286.88
2023-03-05T04:38:15.532Z,97289.66
2023-03-05T04:40:42.041Z,97284.09
2023-03-05T04:43:08.411Z,97279.38
2023-03-05T04:45:34.830Z,97267.47
2023-03-05T04:48:01.199Z,97282.16
2023-03-05T04:50:27.626Z,97264.19
2023-03-05T04:52:54.162Z,97270.84
2023-03-05T04:55:20.521Z,97283.91
2023-03-05T04:57:46.962Z,97269.59
2023-03-05T05:00:15.387Z,97268.84
2023-03-05T05:02:43.180Z,97267.56
2023-03-05T05:05:13.537Z,97273.19
2023-03-05T05:07:40.083Z,97277.84
2023-03-05T05:10:08.165Z,97264.47
2023-03-05T05:12:35.443Z,97267.81
2023-03-05T05:15:02.527Z,97264.66
2023-03-05T05:17:30.883Z,97276.53
2023-03-05T05:19:57.519Z,97249.84
2023-03-05T05:22:23.958Z,97247.16
2023-03-05T05:24:50.438Z,97240.47
2023-03-05T05:27:16.828Z,97260.84
2023-03-05T05:29:43.191Z,97246.53
2023-03-05T05:32:09.639Z,97248.78
2023-03-05T05:34:36.041Z,97237.72
2023-03-05T05:37:02.389Z,97242.19
2023-03-05T05:39:28.818Z,97245.69
2023-03-05T05:41:55.187Z,97243.44
2023-03-05T05:44:21.556Z,97248.75
2023-03-05T05:46:47.960Z,97247.78
2023-03-05T05:49:14.400Z,97257.00
2023-03-05T05:51:41.231Z,97250.88
2023-03-05T05:54:07.639Z,97249.31
2023-03-05T05:56:34.147Z,97243.84
2023-03-05T05:59:00.549Z,97258.78
2023-03-05T06:01:30.512Z,97248.25
2023-03-05T06:03:57.730Z,97235.66
2023-03-05T06:06:25.965Z,97236.09
2023-03-05T06:08:53.023Z,97238.13
2023-03-05T06:11:20.247Z,97244.56
2023-03-05T06:13:47.793Z,97255.84
2023-03-05T06:16:21.934Z,97249.84
2023-03-05T06:18:48.283Z,97234.75
2023-03-05T06:21:16.991Z,97249.66
2023-03-05T06:23:44.273Z,97236.78
2023-03-05T06:26:12.810Z,97224.31
2023-03-05T06:28:40.550Z,97239.25
2023-03-05T06:31:16.530Z,97235.06
2023-03-05T06:33:43.404Z,97238.72
2023-03-05T06:36:13.301Z,97222.81
2023-03-05T06:38:39.855Z,97234.16
2023-03-05T06:41:12.680Z,97236.69
2023-03-05T06:43:41.445Z,97240.25
2023-03-05T06:46:35.115Z,97235.66
2023-03-05T06:49:03.720Z,97230.22
2023-03-05T06:51:33.272Z,97246.16
2023-03-05T06:54:03.143Z,97230.44
2023-03-05T06:56:29.723Z,97245.03
2023-03-05T06:58:56.712Z,97235.06
2023-03-05T07:01:23.726Z,97240.09
2023-03-05T07:03:51.553Z,97239.78
2023-03-05T07:06:18.651Z,97244.59
2023-03-05T07:08:45.111Z,97239.13
2023-03-05T07:11:18.515Z,97238.06
2023-03-05T07:13:47.611Z,97244.78
2023-03-05T07:16:17.083Z,97230.63
2023-03-05T07:18:44.231Z,97222.78
2023-03-05T07:21:14.779Z,97233.22
2023-03-05T07:23:41.131Z,97218.25
2023-03-05T07:26:07.523Z,97236.50
2023-03-05T07:28:34.449Z,97234.50
2023-03-05T07:31:04.509Z,97250.13
2023-03-05T07:33:32.177Z,97251.72
2023-03-05T07:35:58.667Z,97235.22
2023-03-05T07:38:25.197Z,97248.88
2023-03-05T07:40:51.625Z,97244.81
2023-03-05T07:43:18.130Z,97229.63
2023-03-05T07:45:45.819Z,97245.13
2023-03-05T07:48:15.158Z,97234.28
2023-03-05T07:50:41.625Z,97250.25
2023-03-05T07:53:08.707Z,97247.22
2023-03-05T07:55:35.257Z,97236.44
2023-03-05T07:58:01.602Z,97231.78
2023-03-05T08:00:27.986Z,97225.66
2023-03-05T08:02:54.441Z,97233.59
2023-03-05T08:05:20.867Z,97227.78
2023-03-05T08:07:47.215Z,97229.03
2023-03-05T08:10:13.583Z,97233.22
2023-03-05T08:12:39.930Z,97214.13
2023-03-05T08:15:07.020Z,97233.69
2023-03-05T08:17:33.369Z,97226.44
2023-03-05T08:20:00.235Z,97226.00
2023-03-05T08:22:26.876Z,97219.75
2023-03-05T08:24:53.236Z,97216.47
2023-03-05T08:27:19.642Z,97223.69
2023-03-05T08:29:45.991Z,97216.53
2023-03-05T08:32:12.447Z,97209.56
2023-03-05T08:34:38.859Z,97204.41
2023-03-05T08:37:06.107Z,97215.53
2023-03-05T08:39:32.553Z,97213.41
2023-03-05T08:41:58.920Z,97209.84
2023-03-05T08:44:25.311Z,97211.69
2023-03-05T08:46:51.687Z,97215.53
2023-03-05T08:49:18.062Z,97215.53
2023-03-05T08:51:44.445Z,97206.28
2023-03-05T08:54:10.848Z,97214.81
2023-03-05T08:56:37.379Z,97197.06
2023-03-05T08:59:03.941Z,97209.63
2023-03-05T09:01:31.802Z,97204.28
2023-03-05T09:03:59.229Z,97210.25
2023-03-05T09:06:26.431Z,97207.09
2023-03-05T09:08:53.561Z,97211.63
2023-03-05T09:11:20.608Z,97206.28
2023-03-05T09:13:47.028Z,97192.88
2023-03-05T09:16:16.517Z,97188.03
2023-03-05T09:18:43.806Z,97202.41
2023-03-05T09:21:13.400Z,97199.03
2023-03-05T09:23:40.650Z,97192.16
2023-03-05T09:26:13.084Z,97184.53
2023-03-05T09:28:40.282Z,97187.28
2023-03-05T09:31:08.268Z,97183.25
2023-03-05T09:33:35.477Z,97177.66
2023-03-05T09:36:03.273Z,97195.09
2023-03-05T09:38:30.287Z,97181.50
2023-03-05T09:41:07.597Z,97185.59
2023-03-05T09:43:55.046Z,97188.63
2023-03-05T09:46:48.365Z,97179.75
2023-03-05T09:49:31.053Z,97181.88
2023-03-05T09:52:05.418Z,97172.06
2023-03-05T09:54:41.800Z,97162.28
2023-03-05T09:57:18.333Z,97177.44
2023-03-05T09:59:59.291Z,97162.28
2023-03-05T10:02:30.977Z,97170.06
2023-03-05T10:05:24.776Z,97165.63
2023-03-05T10:07:57.537Z,97157.34
2023-03-05T10:10:41.910Z,97153.03
2023-03-05T10:13:16.599Z,97164.13
2023-03-05T10:15:59.045Z,97154.34
2023-03-05T10:18:57.661Z,97162.31
2023-03-05T10:21:40.255Z,97162.88
2023-03-05T10:24:43.950Z,97162.06
2023-03-05T10:27:33.618Z,97157.97
2023-03-05T10:30:29.923Z,97138.28
2023-03-05T10:33:15.476Z,97138.28
2023-03-05T10:35:48.107Z,97140.34
2023-03-05T10:38:29.458Z,97120.03
2023-03-05T10:40:55.908Z,97128.00
2023-03-05T10:43:48.359Z,97132.13
2023-03-05T10:46:17.622Z,97122.94
2023-03-05T10:48:50.858Z,97124.50
2023-03-05T10:51:23.569Z,97121.66
2023-03-05T10:53:57.831Z,97126.03
2023-03-05T10:56:27.001Z,97112.94
2023-03-05T10:58:54.049Z,97118.53
2023-03-05T11:01:24.747Z,97126.75
2023-03-05T11:04:23.774Z,97119.81
2023-03-05T11:06:50.472Z,97113.19
2023-03-05T11:09:21.457Z,97103.22
2023-03-05T11:12:12.149Z,97101.75
2023-03-05T11:14:47.697Z,97095.84
2023-03-05T11:18:04.965Z,97087.66
2023-03-05T11:20:36.621Z,97085.59
2023-03-05T11:23:38.231Z,97084.59
2023-03-05T11:26:13.545Z,97076.38
2023-03-05T11:28:55.256Z,97072.81
2023-03-05T11:31:31.002Z,97061.25
2023-03-05T11:34:25.559Z,97067.41
2023-03-05T11:36:53.115Z,97072.28
2023-03-05T11:39:24.804Z,97069.47
2023-03-05T11:41:59.500Z,97053.28
2023-03-05T11:44:47.989Z,97056.88
2023-03-05T11:47:35.855Z,97053.25
2023-03-05T11:50:16.946Z,97046.59
2023-03-05T11:52:54.508Z,97046.06
2023-03-05T11:55:28.371Z,97031.69
2023-03-05T11:58:03.915Z,97042.72
2023-03-05T12:00:32.603Z,97043.22
2023-03-05T12:03:03.921Z,97030.13
2023-03-05T12:05:31.963Z,97025.72
2023-03-05T12:08:01.705Z,97039.06
2023-03-05T12:10:28.556Z,97028.00
2023-03-05T12:13:23.638Z,97033.19
2023-03-05T12:16:04.683Z,97019.84
2023-03-05T12:18:37.065Z,97025.50
2023-03-05T12:21:22.101Z,97024.72
2023-03-05T12:23:50.299Z,97010.88
2023-03-05T12:26:16.748Z,97003.19
2023-03-05T12:28:43.134Z,97010.63
2023-03-05T12:31:09.472Z,97009.31
2023-03-05T12:33:43.406Z,97006.47
2023-03-05T12:36:21.669Z,96997.22
2023-03-05T12:38:51.900Z,96994.38
2023-03-05T12:41:25.753Z,96985.41
2023-03-05T12:44:10.169Z,96979.03
2023-03-05T12:46:44.665Z,96976.91
2023-03-05T12:49:20.246Z,96971.00
2023-03-05T12:51:51.392Z,96977.63
2023-03-05T12:54:34.333Z,96967.34
2023-03-05T12:57:17.101Z,96963.75
2023-03-05T12:59:48.616Z,96946.75
2023-03-05T13:02:27.306Z,96947.28
2023-03-05T13:04:59.433Z,96931.56
2023-03-05T13:07:25.983Z,96940.53
2023-03-05T13:09:57.701Z,96933.88
2023-03-05T13:12:27.303Z,96924.63
2023-03-05T13:15:04.240Z,96925.22
2023-03-05T13:17:51.830Z,96926.19
2023-03-05T13:20:40.529Z,96927.72
2023-03-05T13:23:26.506Z,96935.19
2023-03-05T13:26:20.033Z,96923.97
2023-03-05T13:29:07.624Z,96940.66
2023-03-05T13:31:36.609Z,96918.06
2023-03-05T13:34:15.838Z,96928.84
2023-03-05T13:36:47.265Z,96920.31
2023-03-05T13:39:35.377Z,96915.16
2023-03-05T13:42:35.071Z,96911.06
2023-03-05T13:45:22.936Z,96898.25
2023-03-05T13:47:58.601Z,96902.63
2023-03-05T13:50:30.950Z,96899.28
2023-03-05T13:53:14.747Z,96883.38
2023-03-05T13:55:41.346Z,96908.22
2023-03-05T13:58:49.247Z,96896.94
2023-03-05T14:01:28.248Z,96892.78
2023-03-05T14:03:58.441Z,96887.19
2023-03-05T14:06:28.215Z,96889.75
2023-03-05T14:09:02.437Z,96883.88
2023-03-05T14:11:28.850Z,96867.47
2023-03-05T14:14:15.550Z,96863.91
2023-03-05T14:16:42.093Z,96870.56
2023-03-05T14:19:31.617Z,96868.56
2023-03-05T14:21:58.051Z,96862.63
2023-03-05T14:24:28.516Z,96852.59
2023-03-05T14:26:57.091Z,96852.91
2023-03-05T14:29:26.250Z,96860.31
2023-03-05T14:31:59.218Z,96851.34
2023-03-05T14:34:31.735Z,96850.84
2023-03-05T14:37:04.681Z,96856.75
2023-03-05T14:39:50.969Z,96845.72
2023-03-05T14:42:30.710Z,96835.41
2023-03-05T14:45:00.231Z,96835.72
2023-03-05T14:47:27.653Z,96826.00
2023-03-05T14:49:54.353Z,96816.53
2023-03-05T14:52:23.710Z,96838.34
2023-03-05T14:54:50.926Z,96823.69
2023-03-05T14:57:21.410Z,96819.31
2023-03-05T14:59:47.761Z,96806.78
2023-03-05T15:02:19.925Z,96813.69
2023-03-05T15:04:46.765Z,96808.56
2023-03-05T15:07:25.611Z,96803.44
2023-03-05T15:09:52.050Z,96798.63
2023-03-05T15:12:18.575Z,96791.91
2023-03-05T15:14:45.120Z,96784.47
2023-03-05T15:17:28.624Z,96789.88
2023-03-05T15:19:55.012Z,96798.34
2023-03-05T15:22:21.350Z,96793.94
2023-03-05T15:24:47.735Z,96796.28
2023-03-05T15:27:14.588Z,96776.31
2023-03-05T15:29:41.059Z,96787.72
2023-03-05T15:32:08.033Z,96766.25
2023-03-05T15:34:34.971Z,96765.25
2023-03-05T15:37:02.601Z,96761.41
2023-03-05T15:39:29.216Z,96766.97
2023-03-05T15:41:56.032Z,96740.13
2023-03-05T15:44:22.663Z,96751.03
2023-03-05T15:46:49.053Z,96744.41
2023-03-05T15:49:15.772Z,96745.44
2023-03-05T15:51:42.142Z,96733.81
2023-03-05T15:54:09.354Z,96736.66
2023-03-05T15:56:35.864Z,96747.66
2023-03-05T15:59:02.268Z,96732.56
2023-03-05T16:01:28.720Z,96738.50
2023-03-05T16:03:55.140Z,96737.97
2023-03-05T16:06:24.395Z,96723.63
2023-03-05T16:08:55.306Z,96723.59
2023-03-05T16:11:21.968Z,96727.13
2023-03-05T16:13:50.370Z,96726.06
2023-03-05T16:16:17.676Z,96726.09
2023-03-05T16:18:46.238Z,96723.84
2023-03-05T16:21:13.829Z,96708.22
2023-03-05T16:23:40.190Z,96712.56
2023-03-05T16:26:08.941Z,96710.53
2023-03-05T16:28:35.350Z,96720.78
2023-03-05T16:31:02.129Z,96716.88
2023-03-05T16:33:28.659Z,96716.94
2023-03-05T16:36:25.644Z,96716.69
2023-03-05T16:38:54.374Z,96698.25
2023-03-05T16:41:23.181Z,96715.41
2023-03-05T16:43:51.601Z,96701.63
2023-03-05T16:46:18.105Z,96695.72
2023-03-05T16:48:45.046Z,96708.78
2023-03-05T16:51:12.691Z,96707.75
2023-03-05T16:53:39.961Z,96704.69
2023-03-05T16:56:08.530Z,96693.19
2023-03-05T16:58:36.323Z,96710.09
2023-03-05T17:01:03.665Z,96701.66
2023-03-05T17:03:30.372Z,96702.44
2023-03-05T17:05:56.736Z,96699.59
2023-03-05T17:08:24.362Z,96698.34
2023-03-05T17:10:51.253Z,96702.69
2023-03-05T17:13:17.640Z,96695.81
2023-03-05T17:18:15.253Z,96691.72
2023-03-05T17:20:41.625Z,96697.63
2023-03-05T17:23:08.041Z,96684.25
2023-03-05T17:25:36.681Z,96692.97
2023-03-05T17:28:03.212Z,96683.00
2023-03-05T17:30:32.062Z,96688.88
2023-03-05T17:32:58.709Z,96679.41
2023-03-05T17:35:25.219Z,96688.66
2023-03-05T17:37:53.445Z,96690.47
2023-03-05T17:40:19.884Z,96694.53
2023-03-05T17:42:46.240Z,96688.91
2023-03-05T17:45:13.081Z,96686.84
2023-03-05T17:47:39.777Z,96677.09
2023-03-05T17:50:07.993Z,96680.19
2023-03-05T17:52:38.142Z,96684.00
2023-03-05T17:55:08.978Z,96678.63
2023-03-05T17:57:41.340Z,96685.81
2023-03-05T18:00:15.340Z,96675.81
2023-03-05T18:02:41.778Z,96670.69
2023-03-05T18:05:08.846Z,96682.75
2023-03-05T18:07:35.372Z,96664.31
2023-03-05T18:10:03.231Z,96677.09
2023-03-05T18:12:29.767Z,96667.91
2023-03-05T18:14:56.213Z,96675.34
2023-03-05T18:17:22.841Z,96661.75
2023-03-05T18:19:49.846Z,96664.06
2023-03-05T18:22:16.217Z,96670.19
2023-03-05T18:24:42.575Z,96655.63
2023-03-05T18:27:08.909Z,96654.09
2023-03-05T18:29:35.412Z,96672.00
2023-03-05T18:32:01.841Z,96669.44
2023-03-05T18:34:28.290Z,96646.94
2023-03-05T18:36:54.705Z,96661.03
2023-03-05T18:39:21.485Z,96639.25
2023-03-05T18:41:48.259Z,96650.53
2023-03-05T18:44:15.245Z,96644.41
2023-03-05T18:46:41.784Z,96645.94
2023-03-05T18:49:11.835Z,96645.69
2023-03-05T18:51:41.486Z,96636.72
2023-03-05T18:54:09.487Z,96649.53
2023-03-05T18:56:35.872Z,96648.75
2023-03-05T18:59:02.243Z,96642.09
2023-03-05T19:01:28.743Z,96633.66
2023-03-05T19:03:55.469Z,96639.78
2023-03-05T19:06:21.816Z,96625.72
2023-03-05T19:08:56.520Z,96626.25
2023-03-05T19:11:23.389Z,96645.75
2023-03-05T19:13:52.137Z,96627.81
2023-03-05T19:16:29.140Z,96635.47
2023-03-05T19:19:16.433Z,96643.69
2023-03-05T19:21:45.513Z,96631.91
2023-03-05T19:24:12.187Z,96633.16
2023-03-05T19:26:39.140Z,96623.44
2023-03-05T19:29:07.443Z,96635.22
2023-03-05T19:31:33.956Z,96618.06
2023-03-05T19:34:01.158Z,96624.97
2023-03-05T19:36:27.663Z,96610.16
2023-03-05T19:38:54.276Z,96616.53
2023-03-05T19:41:21.602Z,96611.41
2023-03-05T19:43:51.954Z,96606.03
2023-03-05T19:46:18.564Z,96592.72
2023-03-05T19:48:45.486Z,96596.56
2023-03-05T19:51:14.654Z,96619.09
2023-03-05T19:53:42.140Z,96608.09
2023-03-05T19:56:09.782Z,96597.09
2023-03-05T19:58:37.366Z,96606.81
2023-03-05T20:01:36.815Z,96587.59
2023-03-05T20:04:05.067Z,96581.22
2023-03-05T20:06:32.768Z,96584.03
2023-03-05T20:08:59.326Z,96585.56
2023-03-05T20:11:26.639Z,96591.19
2023-03-05T20:13:55.219Z,96579.66
2023-03-05T20:16:23.607Z,96594.00
2023-03-05T20:18:54.662Z,96579.44
2023-03-05T20:21:23.709Z,96577.09
2023-03-05T20:23:55.913Z,96585.03
2023-03-05T20:26:23.700Z,96573.28
2023-03-05T20:28:50.292Z,96586.59
2023-03-05T20:31:21.965Z,96585.56
2023-03-05T20:33:49.309Z,96580.94
2023-03-05T20:36:15.820Z,96591.19
2023-03-05T20:38:42.552Z,96569.41
2023-03-05T20:41:11.451Z,96578.38
2023-03-05T20:43:42.515Z,96580.94
2023-03-05T20:46:24.087Z,96568.88
2023-03-05T20:48:53.470Z,96548.91
2023-03-05T20:51:29.738Z,96563.00
2023-03-05T20:54:02.181Z,96558.84
2023-03-05T20:56:29.476Z,96553.22
2023-03-05T20:58:58.073Z,96565.00
2023-03-05T21:01:25.172Z,96558.06
2023-03-05T21:03:53.597Z,96552.44
2023-03-05T21:06:20.015Z,96542.47
2023-03-05T21:08:46.366Z,96549.38
2023-03-05T21:11:13.709Z,96536.81
2023-03-05T21:13:40.114Z,96546.03
2023-03-05T21:16:12.014Z,96544.50
2023-03-05T21:18:38.368Z,96538.09
2023-03-05T21:21:05.574Z,96518.34
2023-03-05T21:23:32.559Z,96540.66
2023-03-05T21:25:59.201Z,96535.53
2023-03-05T21:28:25.666Z,96529.31
2023-03-05T21:30:54.192Z,96519.63
2023-03-05T21:33:22.991Z,96523.94
2023-03-05T21:35:52.641Z,96523.97
2023-03-05T21:38:22.896Z,96507.06
2023-03-05T21:40:50.306Z,96510.84
2023-03-05T21:43:19.906Z,96509.34
2023-03-05T21:45:47.193Z,96499.09
2023-03-05T21:48:14.152Z,96488.59
2023-03-05T21:50:42.084Z,96484.94
2023-03-05T21:53:08.651Z,96492.16
2023-03-05T21:55:46.229Z,96482.59
2023-03-05T21:58:12.878Z,96482.09
2023-03-05T22:00:39.232Z,96469.34
2023-03-05T22:03:05.619Z,96477.56
2023-03-05T22:05:31.993Z,96467.28
2023-03-05T22:07:58.328Z,96464.72
2023-03-05T22:10:24.803Z,96458.06
2023-03-05T22:13:11.872Z,96461.91
2023-03-05T22:15:49.820Z,96455.69
2023-03-05T22:18:19.509Z,96450.56
2023-03-05T22:20:47.072Z,96464.38
2023-03-05T22:23:14.019Z,96447.50
2023-03-05T22:25:41.261Z,96449.28
2023-03-05T22:28:09.241Z,96441.28
2023-03-05T22:30:35.918Z,96439.78
2023-03-05T22:33:02.926Z,96433.19
2023-03-05T22:35:30.171Z,96415.94
2023-03-05T22:37:57.746Z,96424.38
2023-03-05T22:40:24.158Z,96418.00
2023-03-05T22:42:50.656Z,96412.59
2023-03-05T22:45:18.711Z,96401.41
2023-03-05T22:47:49.749Z,96406.75
2023-03-05T22:50:17.633Z,96409.56
2023-03-05T22:52:44.164Z,96405.44
2023-03-05T22:55:12.927Z,96387.34
2023-03-05T22:57:39.904Z,96410.13
2023-03-05T23:00:11.104Z,96407.53
2023-03-05T23:02:37.458Z,96388.09
2023-03-05T23:05:04.059Z,96396.28
2023-03-05T23:07:34.708Z,96393.44
2023-03-05T23:10:13.028Z,96383.50
2023-03-05T23:12:44.482Z,96398.28
2023-03-05T23:15:13.768Z,96387.03
2023-03-05T23:17:40.747Z,96384.72
2023-03-05T23:20:10.075Z,96377.84
2023-03-05T23:22:37.837Z,96380.97
2023-03-05T23:25:04.646Z,96369.69
2023-03-05T23:27:31.019Z,96384.03
2023-03-05T23:30:19.106Z,96384.75
2023-03-05T23:32:54.552Z,96379.72
2023-03-05T23:35:33.114Z,96380.63
2023-03-05T23:38:01.412Z,96379.91
2023-03-05T23:40:31.436Z,96374.59
2023-03-05T23:42:58.583Z,96373.25
2023-03-05T23:45:26.166Z,96352.84
2023-03-05T23:47:52.962Z,96374.75
2023-03-05T23:50:25.317Z,96359.78
2023-03-05T23:52:53.943Z,96358.69
2023-03-05T23:55:24.228Z,96372.41
2023-03-05T23:57:51.943Z,96364.31
